Terminal Aerodrome Forecast
Issued by NWS

Home | Current Version | Previous Version | Text Only | Print | Product List | Glossary On
Versions: 1 2 3 4 5 6 7 8 9 10 11 12 13 14 15 16 17 18
046
FTUS46 KHNX 191730
TAFFAT
TAF
KFAT 191730Z 1918/2018 31012KT P6SM SCT040 BKN090 OVC150
      TEMPO 1920/1923 -SHRA BKN025 OVC040
     FM200600 31010KT P6SM SCT025
     FM201200 31006KT P6SM BKN020=

USA.gov is the U.S. government's official web portal to all federal, state and local government web resources and services.